createdAt,value
2023-09-06T00:01:47.693Z,100.00
2023-09-06T00:04:15.052Z,100.00
2023-09-06T00:06:42.292Z,100.00
2023-09-06T00:09:11.549Z,100.00
2023-09-06T00:11:40.825Z,100.00
2023-09-06T00:14:08.061Z,100.00
2023-09-06T00:16:35.320Z,100.00
2023-09-06T00:19:02.705Z,100.00
2023-09-06T00:21:30.635Z,100.00
2023-09-06T00:23:57.867Z,100.00
2023-09-06T00:26:27.738Z,100.00
2023-09-06T00:28:55.697Z,100.00
2023-09-06T00:31:22.829Z,100.00
2023-09-06T00:33:50.025Z,100.00
2023-09-06T00:36:17.567Z,100.00
2023-09-06T00:38:44.696Z,100.00
2023-09-06T00:41:11.902Z,100.00
2023-09-06T00:43:39.101Z,100.00
2023-09-06T00:46:09.005Z,100.00
2023-09-06T00:48:36.992Z,100.00
2023-09-06T00:51:08.321Z,100.00
2023-09-06T00:53:35.850Z,100.00
2023-09-06T00:56:04.759Z,100.00
2023-09-06T00:58:33.389Z,100.00
2023-09-06T01:01:01.552Z,100.00
2023-09-06T01:03:29.045Z,100.00
2023-09-06T01:06:05.490Z,100.00
2023-09-06T01:08:56.999Z,100.00
2023-09-06T01:11:26.718Z,100.00
2023-09-06T01:13:59.862Z,100.00
2023-09-06T01:16:31.246Z,100.00
2023-09-06T01:18:59.194Z,100.00
2023-09-06T01:21:39.716Z,100.00
2023-09-06T01:24:10.287Z,100.00
2023-09-06T01:26:38.393Z,100.00
2023-09-06T01:29:06.013Z,100.00
2023-09-06T01:31:33.332Z,100.00
2023-09-06T01:34:00.679Z,100.00
2023-09-06T01:36:29.808Z,100.00
2023-09-06T01:38:56.940Z,100.00
2023-09-06T01:41:24.128Z,100.00
2023-09-06T01:43:55.750Z,100.00
2023-09-06T01:46:24.517Z,100.00
2023-09-06T01:48:52.262Z,100.00
2023-09-06T01:51:19.521Z,100.00
2023-09-06T01:53:46.665Z,100.00
2023-09-06T01:56:14.193Z,100.00
2023-09-06T01:58:42.003Z,100.00
2023-09-06T02:01:10.870Z,100.00
2023-09-06T02:03:38.708Z,100.00
2023-09-06T02:06:06.047Z,100.00
2023-09-06T02:08:33.978Z,100.00
2023-09-06T02:11:01.044Z,100.00
2023-09-06T02:13:28.113Z,100.00
2023-09-06T02:15:55.902Z,100.00
2023-09-06T02:18:23.067Z,100.00
2023-09-06T02:20:51.432Z,100.00
2023-09-06T02:23:18.652Z,100.00
2023-09-06T02:25:46.945Z,100.00
2023-09-06T02:28:15.832Z,100.00
2023-09-06T02:30:45.520Z,100.00
2023-09-06T02:33:14.108Z,100.00
2023-09-06T02:35:42.399Z,100.00
2023-09-06T02:38:13.338Z,100.00
2023-09-06T02:40:44.597Z,100.00
2023-09-06T02:43:12.683Z,100.00
2023-09-06T02:45:40.452Z,100.00
2023-09-06T02:48:14.883Z,100.00
2023-09-06T02:50:42.339Z,100.00
2023-09-06T02:53:21.030Z,100.00
2023-09-06T02:55:55.196Z,100.00
2023-09-06T02:58:28.096Z,100.00
2023-09-06T03:01:00.036Z,100.00
2023-09-06T03:03:31.860Z,100.00
2023-09-06T03:06:00.527Z,100.00
2023-09-06T03:08:31.063Z,100.00
2023-09-06T03:10:58.986Z,100.00
2023-09-06T03:13:29.260Z,100.00
2023-09-06T03:16:00.783Z,100.00
2023-09-06T03:18:30.694Z,100.00
2023-09-06T03:21:05.312Z,100.00
2023-09-06T03:23:33.416Z,100.00
2023-09-06T03:26:02.563Z,100.00
2023-09-06T03:28:35.626Z,100.00
2023-09-06T03:31:05.119Z,100.00
2023-09-06T03:33:32.743Z,100.00
2023-09-06T03:36:00.037Z,100.00
2023-09-06T03:38:28.873Z,100.00
2023-09-06T03:41:03.975Z,100.00
2023-09-06T03:43:33.609Z,100.00
2023-09-06T03:46:06.160Z,100.00
2023-09-06T03:48:36.084Z,100.00
2023-09-06T03:51:04.478Z,100.00
2023-09-06T03:53:33.949Z,100.00
2023-09-06T03:56:01.762Z,100.00
2023-09-06T03:58:42.144Z,100.00
2023-09-06T04:01:12.820Z,100.00
2023-09-06T04:03:42.420Z,100.00
2023-09-06T04:06:12.292Z,100.00
2023-09-06T04:08:40.982Z,100.00
2023-09-06T04:11:11.887Z,100.00
2023-09-06T04:13:41.419Z,100.00
2023-09-06T04:16:09.214Z,100.00
2023-09-06T04:18:38.607Z,100.00
2023-09-06T04:21:12.089Z,100.00
2023-09-06T04:23:42.957Z,100.00
2023-09-06T04:26:13.656Z,100.00
2023-09-06T04:28:41.863Z,100.00
2023-09-06T04:31:12.229Z,100.00
2023-09-06T04:33:43.490Z,100.00
2023-09-06T04:36:20.220Z,100.00
2023-09-06T04:38:50.568Z,100.00
2023-09-06T04:41:18.047Z,100.00
2023-09-06T04:43:51.580Z,100.00
2023-09-06T04:46:18.788Z,100.00
2023-09-06T04:48:49.876Z,100.00
2023-09-06T04:51:17.139Z,100.00
2023-09-06T04:53:45.419Z,100.00
2023-09-06T04:56:17.370Z,100.00
2023-09-06T04:58:48.207Z,100.00
2023-09-06T05:01:15.808Z,100.00
2023-09-06T05:03:43.306Z,100.00
2023-09-06T05:06:10.808Z,100.00
2023-09-06T05:08:38.075Z,100.00
2023-09-06T05:11:10.868Z,100.00
2023-09-06T05:13:40.472Z,100.00
2023-09-06T05:16:09.664Z,100.00
2023-09-06T05:18:39.591Z,100.00
2023-09-06T05:21:07.217Z,100.00
2023-09-06T05:23:37.596Z,100.00
2023-09-06T05:26:05.787Z,100.00
2023-09-06T05:28:50.957Z,100.00
2023-09-06T05:31:19.949Z,100.00
2023-09-06T05:33:48.861Z,100.00
2023-09-06T05:36:18.317Z,100.00
2023-09-06T05:38:45.521Z,100.00
2023-09-06T05:41:13.910Z,100.00
2023-09-06T05:43:43.976Z,100.00
2023-09-06T05:46:29.691Z,100.00
2023-09-06T05:49:01.168Z,100.00
2023-09-06T05:51:33.037Z,100.00
2023-09-06T05:54:02.886Z,100.00
2023-09-06T05:56:31.358Z,100.00
2023-09-06T05:58:59.841Z,100.00
2023-09-06T06:01:27.829Z,100.00
2023-09-06T06:03:55.241Z,100.00
2023-09-06T06:06:23.798Z,100.00
2023-09-06T06:08:51.324Z,100.00
2023-09-06T06:11:18.757Z,100.00
2023-09-06T06:13:53.164Z,100.00
2023-09-06T06:16:28.073Z,100.00
2023-09-06T06:18:55.562Z,100.00
2023-09-06T06:21:24.141Z,100.00
2023-09-06T06:23:51.604Z,100.00
2023-09-06T06:26:21.291Z,100.00
2023-09-06T06:28:50.004Z,100.00
2023-09-06T06:31:17.379Z,100.00
2023-09-06T06:33:45.087Z,100.00
2023-09-06T06:36:12.329Z,100.00
2023-09-06T06:38:39.484Z,100.00
2023-09-06T06:41:06.775Z,100.00
2023-09-06T06:43:35.047Z,100.00
2023-09-06T06:46:05.609Z,100.00
2023-09-06T06:48:33.232Z,100.00
2023-09-06T06:51:00.401Z,100.00
2023-09-06T06:53:28.016Z,100.00
2023-09-06T06:55:55.225Z,100.00
2023-09-06T06:58:22.440Z,100.00
2023-09-06T07:00:49.743Z,100.00
2023-09-06T07:03:17.368Z,100.00
2023-09-06T07:05:44.598Z,100.00
2023-09-06T07:08:12.081Z,100.00
2023-09-06T07:10:39.379Z,100.00
2023-09-06T07:13:06.685Z,100.00
2023-09-06T07:15:34.033Z,100.00
2023-09-06T07:18:05.865Z,100.00
2023-09-06T07:20:33.854Z,100.00
2023-09-06T07:23:01.212Z,100.00
2023-09-06T07:25:32.968Z,100.00
2023-09-06T07:28:00.566Z,100.00
2023-09-06T07:30:28.193Z,100.00
2023-09-06T07:32:55.471Z,100.00
2023-09-06T07:35:22.921Z,100.00
2023-09-06T07:37:50.016Z,100.00
2023-09-06T07:40:18.099Z,100.00
2023-09-06T07:42:45.478Z,100.00
2023-09-06T07:45:12.992Z,100.00
2023-09-06T07:47:40.304Z,100.00
2023-09-06T07:50:10.281Z,100.00
2023-09-06T07:52:38.538Z,100.00
2023-09-06T07:55:06.559Z,100.00
2023-09-06T07:57:33.903Z,100.00
2023-09-06T08:00:01.116Z,100.00
2023-09-06T08:02:28.872Z,100.00
2023-09-06T08:04:55.997Z,100.00
2023-09-06T08:07:23.620Z,100.00
2023-09-06T08:09:50.868Z,100.00
2023-09-06T08:12:18.088Z,100.00
2023-09-06T08:14:45.417Z,100.00
2023-09-06T08:17:12.879Z,100.00
2023-09-06T08:19:40.143Z,100.00
2023-09-06T08:22:07.487Z,100.00
2023-09-06T08:24:34.853Z,100.00
2023-09-06T08:27:02.223Z,100.00
2023-09-06T08:29:29.421Z,100.00
2023-09-06T08:31:56.778Z,100.00
2023-09-06T08:34:24.265Z,100.00
2023-09-06T08:36:52.624Z,100.00
2023-09-06T08:39:19.861Z,100.00
2023-09-06T08:41:49.520Z,100.00
2023-09-06T08:44:19.965Z,100.00
2023-09-06T08:46:47.891Z,100.00
2023-09-06T08:49:16.854Z,100.00
2023-09-06T08:51:44.617Z,100.00
2023-09-06T08:54:13.827Z,100.00
2023-09-06T08:56:41.672Z,100.00
2023-09-06T08:59:09.953Z,100.00
2023-09-06T09:01:39.194Z,100.00
2023-09-06T09:04:06.913Z,100.00
2023-09-06T09:06:34.131Z,100.00
2023-09-06T09:09:15.624Z,100.00
2023-09-06T09:12:01.175Z,100.00
2023-09-06T09:14:28.365Z,100.00
2023-09-06T09:17:00.370Z,100.00
2023-09-06T09:19:28.117Z,100.00
2023-09-06T09:21:56.550Z,100.00
2023-09-06T09:24:30.116Z,100.00
2023-09-06T09:26:57.985Z,100.00
2023-09-06T09:29:25.850Z,100.00
2023-09-06T09:31:53.158Z,100.00
2023-09-06T09:34:21.581Z,99.77
2023-09-06T09:36:52.467Z,100.00
2023-09-06T09:39:20.555Z,97.82
2023-09-06T09:41:58.825Z,97.20
2023-09-06T09:44:27.093Z,95.62
2023-09-06T09:46:58.418Z,96.35
2023-09-06T09:49:27.689Z,95.51
2023-09-06T09:51:54.979Z,91.53
2023-09-06T09:54:24.797Z,96.37
2023-09-06T09:57:07.615Z,93.09
2023-09-06T09:59:37.324Z,90.46
2023-09-06T10:02:06.497Z,88.43
2023-09-06T10:04:43.915Z,89.02
2023-09-06T10:07:15.185Z,91.54
2023-09-06T10:09:43.931Z,89.92
2023-09-06T10:12:12.904Z,91.79
2023-09-06T10:14:41.919Z,87.20
2023-09-06T10:17:10.883Z,82.96
2023-09-06T10:19:53.812Z,84.75
2023-09-06T10:22:22.613Z,80.73
2023-09-06T10:24:53.212Z,83.23
2023-09-06T10:27:20.444Z,82.11
2023-09-06T10:30:04.028Z,80.85
2023-09-06T10:32:44.994Z,84.46
2023-09-06T10:35:31.320Z,81.11
2023-09-06T10:38:16.841Z,81.57
2023-09-06T10:40:53.176Z,78.21
2023-09-06T10:43:29.277Z,77.48
2023-09-06T10:45:57.402Z,83.43
2023-09-06T10:48:25.873Z,79.25
2023-09-06T10:51:07.875Z,76.22
2023-09-06T10:53:36.272Z,79.94
2023-09-06T10:56:05.099Z,78.80
2023-09-06T10:58:35.866Z,79.40
2023-09-06T11:01:19.087Z,83.38
2023-09-06T11:03:52.440Z,76.38
2023-09-06T11:06:24.734Z,73.73
2023-09-06T11:08:52.785Z,73.90
2023-09-06T11:11:20.861Z,74.23
2023-09-06T11:13:48.121Z,71.16
2023-09-06T11:16:17.283Z,70.54
2023-09-06T11:18:49.698Z,76.06
2023-09-06T11:21:26.666Z,68.42
2023-09-06T11:23:55.287Z,69.20
2023-09-06T11:26:22.720Z,72.95
2023-09-06T11:29:01.711Z,76.05
2023-09-06T11:31:34.392Z,70.92
2023-09-06T11:34:05.842Z,63.71
2023-09-06T11:36:36.720Z,59.92
2023-09-06T11:39:19.851Z,62.44
2023-09-06T11:41:48.995Z,59.85
2023-09-06T11:44:19.309Z,63.24
2023-09-06T11:46:48.282Z,62.16
2023-09-06T11:49:16.837Z,58.01
2023-09-06T11:51:47.501Z,59.97
2023-09-06T11:54:17.057Z,67.88
2023-09-06T11:56:48.747Z,64.45
2023-09-06T11:59:18.926Z,66.78
2023-09-06T12:01:46.373Z,57.79
2023-09-06T12:04:17.762Z,58.71
2023-09-06T12:06:45.280Z,59.41
2023-09-06T12:09:17.299Z,58.59
2023-09-06T12:11:44.513Z,59.76
2023-09-06T12:14:13.559Z,58.92
2023-09-06T12:16:42.598Z,55.59
2023-09-06T12:19:14.836Z,55.53
2023-09-06T12:21:42.089Z,56.27
2023-09-06T12:24:09.298Z,55.65
2023-09-06T12:26:36.989Z,57.69
2023-09-06T12:29:05.657Z,56.09
2023-09-06T12:31:33.202Z,54.76
2023-09-06T12:34:00.534Z,54.54
2023-09-06T12:36:28.329Z,54.22
2023-09-06T12:38:55.991Z,55.23
2023-09-06T12:41:23.187Z,54.94
2023-09-06T12:43:50.392Z,51.13
2023-09-06T12:46:19.427Z,55.27
2023-09-06T12:48:48.131Z,54.37
2023-09-06T12:51:16.572Z,54.31
2023-09-06T12:53:43.776Z,55.49
2023-09-06T12:56:15.335Z,56.54
2023-09-06T12:58:42.893Z,49.97
2023-09-06T13:01:12.156Z,53.04
2023-09-06T13:03:41.071Z,53.73
2023-09-06T13:06:10.020Z,56.81
2023-09-06T13:08:37.813Z,60.90
2023-09-06T13:11:05.489Z,59.91
2023-09-06T13:13:32.779Z,59.49
2023-09-06T13:15:59.872Z,58.19
2023-09-06T13:18:27.467Z,57.08
2023-09-06T13:20:55.097Z,59.10
2023-09-06T13:23:22.378Z,60.81
2023-09-06T13:25:49.572Z,61.58
2023-09-06T13:28:16.918Z,58.16
2023-09-06T13:30:44.303Z,60.17
2023-09-06T13:33:11.592Z,61.68
2023-09-06T13:35:39.087Z,61.83
2023-09-06T13:38:07.170Z,62.68
2023-09-06T13:40:34.452Z,62.89
2023-09-06T13:43:02.160Z,67.24
2023-09-06T13:45:30.709Z,61.76
2023-09-06T13:47:58.248Z,63.06
2023-09-06T13:50:25.583Z,65.32
2023-09-06T13:52:52.896Z,67.13
2023-09-06T13:55:20.317Z,63.80
2023-09-06T13:57:47.438Z,64.23
2023-09-06T14:00:14.843Z,64.88
2023-09-06T14:02:42.271Z,61.48
2023-09-06T14:05:09.909Z,64.93
2023-09-06T14:07:37.934Z,66.69
2023-09-06T14:10:05.394Z,62.51
2023-09-06T14:12:32.758Z,63.50
2023-09-06T14:14:59.940Z,58.81
2023-09-06T14:17:27.191Z,61.27
2023-09-06T14:19:54.434Z,61.22
2023-09-06T14:22:21.753Z,63.31
2023-09-06T14:24:49.483Z,61.11
2023-09-06T14:27:18.232Z,63.20
2023-09-06T14:29:45.854Z,62.17
2023-09-06T14:32:13.258Z,61.61
2023-09-06T14:34:40.764Z,59.82
2023-09-06T14:37:09.011Z,62.14
2023-09-06T14:39:36.119Z,63.14
2023-09-06T14:42:03.386Z,60.14
2023-09-06T14:44:30.916Z,61.56
2023-09-06T14:46:58.174Z,59.64
2023-09-06T14:49:25.292Z,61.06
2023-09-06T14:51:52.622Z,59.66
2023-09-06T14:54:19.821Z,59.58
2023-09-06T14:56:46.983Z,59.90
2023-09-06T14:59:14.311Z,61.31
2023-09-06T15:01:41.567Z,60.01
2023-09-06T15:04:08.900Z,61.01
2023-09-06T15:06:52.969Z,63.00
2023-09-06T15:09:24.578Z,58.52
2023-09-06T15:11:53.336Z,61.35
2023-09-06T15:14:20.770Z,61.48
2023-09-06T15:16:48.188Z,61.57
2023-09-06T15:19:15.384Z,61.22
2023-09-06T15:21:44.375Z,60.96
2023-09-06T15:24:11.922Z,62.70
2023-09-06T15:26:39.276Z,65.61
2023-09-06T15:29:06.735Z,63.32
2023-09-06T15:31:34.111Z,63.42
2023-09-06T15:34:01.592Z,63.99
2023-09-06T15:36:31.774Z,62.11
2023-09-06T15:38:59.307Z,64.57
2023-09-06T15:41:33.058Z,62.73
2023-09-06T15:44:04.632Z,61.93
2023-09-06T15:46:32.238Z,63.48
2023-09-06T15:48:59.416Z,63.43
2023-09-06T15:51:26.871Z,65.01
2023-09-06T15:53:54.200Z,64.55
2023-09-06T15:56:21.451Z,63.98
2023-09-06T15:58:48.540Z,65.89
2023-09-06T16:01:15.875Z,64.89
2023-09-06T16:03:43.149Z,64.05
2023-09-06T16:06:10.432Z,66.03
2023-09-06T16:08:37.579Z,65.56
2023-09-06T16:11:05.001Z,65.80
2023-09-06T16:13:32.219Z,66.20
2023-09-06T16:15:59.507Z,66.53
2023-09-06T16:18:26.695Z,66.99
2023-09-06T16:20:54.850Z,68.51
2023-09-06T16:23:21.966Z,67.65
2023-09-06T16:25:49.117Z,66.92
2023-09-06T16:28:17.138Z,66.81
2023-09-06T16:30:44.320Z,67.57
2023-09-06T16:33:12.379Z,69.77
2023-09-06T16:35:39.787Z,70.01
2023-09-06T16:38:09.670Z,68.37
2023-09-06T16:40:37.146Z,71.23
2023-09-06T16:43:05.686Z,72.32
2023-09-06T16:45:33.058Z,71.54
2023-09-06T16:48:00.316Z,71.23
2023-09-06T16:50:27.775Z,71.22
2023-09-06T16:52:55.028Z,72.89
2023-09-06T16:55:22.259Z,71.57
2023-09-06T16:57:54.206Z,71.05
2023-09-06T17:00:26.288Z,72.48
2023-09-06T17:02:54.764Z,72.75
2023-09-06T17:05:22.208Z,73.26
2023-09-06T17:07:49.965Z,72.61
2023-09-06T17:10:20.441Z,72.35
2023-09-06T17:12:50.682Z,72.44
2023-09-06T17:15:20.246Z,74.17
2023-09-06T17:17:49.316Z,75.05
2023-09-06T17:20:18.374Z,75.67
2023-09-06T17:22:46.779Z,75.30
2023-09-06T17:25:14.245Z,76.33
2023-09-06T17:27:43.427Z,78.09
2023-09-06T17:30:20.411Z,78.68
2023-09-06T17:33:09.411Z,81.12
2023-09-06T17:35:36.996Z,81.24
2023-09-06T17:38:08.692Z,80.33
2023-09-06T17:40:36.762Z,79.08
2023-09-06T17:43:04.298Z,86.69
2023-09-06T17:45:31.685Z,85.30
2023-09-06T17:47:59.231Z,86.60
2023-09-06T17:50:28.978Z,87.31
2023-09-06T17:52:56.240Z,87.06
2023-09-06T17:55:26.501Z,87.17
2023-09-06T17:57:54.063Z,86.25
2023-09-06T18:00:25.418Z,86.30
2023-09-06T18:02:52.900Z,84.87
2023-09-06T18:05:21.014Z,85.72
2023-09-06T18:07:48.650Z,86.38
2023-09-06T18:10:15.931Z,87.71
2023-09-06T18:12:44.758Z,87.87
2023-09-06T18:15:13.333Z,87.24
2023-09-06T18:17:51.116Z,87.56
2023-09-06T18:20:18.878Z,89.58
2023-09-06T18:22:49.320Z,91.73
2023-09-06T18:25:16.823Z,93.57
2023-09-06T18:27:44.143Z,94.56
2023-09-06T18:30:12.112Z,94.86
2023-09-06T18:32:43.137Z,94.39
2023-09-06T18:35:12.069Z,94.06
2023-09-06T18:37:40.058Z,93.00
2023-09-06T18:40:17.201Z,91.53
2023-09-06T18:42:45.672Z,91.31
2023-09-06T18:45:14.332Z,90.47
2023-09-06T18:47:46.797Z,90.51
2023-09-06T18:50:17.429Z,90.06
2023-09-06T18:52:46.924Z,90.35
2023-09-06T18:55:16.573Z,91.67
2023-09-06T18:57:55.461Z,91.96
2023-09-06T19:00:26.989Z,93.39
2023-09-06T19:02:54.672Z,93.03
2023-09-06T19:05:22.186Z,92.96
2023-09-06T19:07:49.585Z,94.22
2023-09-06T19:10:17.667Z,94.41
2023-09-06T19:12:46.311Z,94.94
2023-09-06T19:15:14.968Z,95.49
2023-09-06T19:17:42.305Z,96.19
2023-09-06T19:20:13.371Z,98.19
2023-09-06T19:22:42.198Z,100.00
2023-09-06T19:25:10.032Z,100.00
2023-09-06T19:27:38.285Z,100.00
2023-09-06T19:30:08.197Z,100.00
2023-09-06T19:32:40.027Z,100.00
2023-09-06T19:35:08.509Z,100.00
2023-09-06T19:37:35.924Z,100.00
2023-09-06T19:40:05.142Z,100.00
2023-09-06T19:42:32.594Z,100.00
2023-09-06T19:44:59.849Z,100.00
2023-09-06T19:47:27.165Z,100.00
2023-09-06T19:49:56.533Z,100.00
2023-09-06T19:52:24.012Z,100.00
2023-09-06T19:54:51.131Z,100.00
2023-09-06T19:57:18.453Z,100.00
2023-09-06T19:59:45.642Z,100.00
2023-09-06T20:02:12.938Z,100.00
2023-09-06T20:04:40.368Z,100.00
2023-09-06T20:07:07.680Z,100.00
2023-09-06T20:09:35.519Z,100.00
2023-09-06T20:12:03.364Z,100.00
2023-09-06T20:14:30.584Z,100.00
2023-09-06T20:16:57.983Z,100.00
2023-09-06T20:19:25.651Z,100.00
2023-09-06T20:21:52.967Z,100.00
2023-09-06T20:24:20.130Z,100.00
2023-09-06T20:26:47.428Z,100.00
2023-09-06T20:29:16.983Z,100.00
2023-09-06T20:31:44.228Z,100.00
2023-09-06T20:34:11.498Z,100.00
2023-09-06T20:36:38.804Z,100.00
2023-09-06T20:39:06.500Z,100.00
2023-09-06T20:41:33.611Z,100.00
2023-09-06T20:44:00.766Z,100.00
2023-09-06T20:46:28.072Z,100.00
2023-09-06T20:48:55.349Z,100.00
2023-09-06T20:51:22.550Z,100.00
2023-09-06T20:53:50.376Z,100.00
2023-09-06T20:56:17.382Z,100.00
2023-09-06T20:58:45.462Z,100.00
2023-09-06T21:01:20.671Z,100.00
2023-09-06T21:03:48.490Z,100.00
2023-09-06T21:06:15.837Z,100.00
2023-09-06T21:08:43.195Z,100.00
2023-09-06T21:11:10.530Z,100.00
2023-09-06T21:13:37.721Z,100.00
2023-09-06T21:16:06.181Z,100.00
2023-09-06T21:18:33.783Z,100.00
2023-09-06T21:21:01.416Z,100.00
2023-09-06T21:23:28.590Z,100.00
2023-09-06T21:25:55.753Z,100.00
2023-09-06T21:28:22.901Z,100.00
2023-09-06T21:30:51.057Z,100.00
2023-09-06T21:33:19.026Z,100.00
2023-09-06T21:35:46.746Z,100.00
2023-09-06T21:38:14.024Z,100.00
2023-09-06T21:40:45.768Z,100.00
2023-09-06T21:43:18.326Z,100.00
2023-09-06T21:45:46.993Z,100.00
2023-09-06T21:48:16.935Z,100.00
2023-09-06T21:50:47.761Z,100.00
2023-09-06T21:53:14.956Z,100.00
2023-09-06T21:55:42.187Z,100.00
2023-09-06T21:58:11.202Z,100.00
2023-09-06T22:00:40.297Z,100.00
2023-09-06T22:03:26.412Z,100.00
2023-09-06T22:06:12.148Z,100.00
2023-09-06T22:08:58.174Z,100.00
2023-09-06T22:11:44.687Z,100.00
2023-09-06T22:14:11.784Z,100.00
2023-09-06T22:16:39.141Z,100.00
2023-09-06T22:19:07.436Z,100.00
2023-09-06T22:21:35.344Z,100.00
2023-09-06T22:24:02.520Z,100.00
2023-09-06T22:26:29.635Z,100.00
2023-09-06T22:29:00.256Z,100.00
2023-09-06T22:31:29.883Z,100.00
2023-09-06T22:33:57.530Z,100.00
2023-09-06T22:36:25.851Z,100.00
2023-09-06T22:38:53.074Z,100.00
2023-09-06T22:41:21.325Z,100.00
2023-09-06T22:43:48.424Z,100.00
2023-09-06T22:46:15.762Z,100.00
2023-09-06T22:51:13.395Z,100.00
2023-09-06T22:53:41.759Z,100.00
2023-09-06T22:56:09.034Z,100.00
2023-09-06T22:58:36.301Z,100.00
2023-09-06T23:01:07.866Z,100.00
2023-09-06T23:03:37.786Z,100.00
2023-09-06T23:06:11.378Z,100.00
2023-09-06T23:08:39.802Z,100.00
2023-09-06T23:11:07.708Z,100.00
2023-09-06T23:13:35.802Z,100.00
2023-09-06T23:16:06.377Z,100.00
2023-09-06T23:18:36.540Z,100.00
2023-09-06T23:21:07.054Z,100.00
2023-09-06T23:23:35.657Z,100.00
2023-09-06T23:26:07.397Z,100.00
2023-09-06T23:28:35.821Z,100.00
2023-09-06T23:31:06.823Z,100.00
2023-09-06T23:33:40.663Z,100.00
2023-09-06T23:36:15.693Z,100.00
2023-09-06T23:38:45.522Z,100.00
2023-09-06T23:41:17.406Z,100.00
2023-09-06T23:43:45.389Z,100.00
2023-09-06T23:46:13.319Z,100.00
2023-09-06T23:48:40.543Z,100.00
2023-09-06T23:51:07.757Z,100.00
2023-09-06T23:53:35.526Z,100.00
2023-09-06T23:56:04.410Z,100.00
2023-09-06T23:58:31.820Z,100.00
